createdAt,value
2019-05-14T00:03:51.879Z,70.99
2019-05-14T00:08:55.380Z,71.01
2019-05-14T00:13:58.530Z,71.29
2019-05-14T00:19:02.027Z,71.58
2019-05-14T00:24:05.386Z,71.85
2019-05-14T00:29:11.169Z,71.74
2019-05-14T00:34:14.013Z,72.18
2019-05-14T00:39:17.581Z,71.26
2019-05-14T00:44:21.525Z,71.90
2019-05-14T00:49:24.959Z,71.34
2019-05-14T00:54:28.154Z,71.08
2019-05-14T00:59:32.235Z,70.92
2019-05-14T01:04:35.589Z,71.02
2019-05-14T01:09:42.111Z,71.14
2019-05-14T01:14:45.456Z,71.06
2019-05-14T01:19:51.095Z,72.12
2019-05-14T01:24:57.320Z,72.00
2019-05-14T01:30:02.033Z,72.37
2019-05-14T01:35:05.764Z,72.79
2019-05-14T01:40:11.230Z,72.37
2019-05-14T01:45:23.944Z,71.99
2019-05-14T01:50:21.396Z,71.82
2019-05-14T01:55:24.420Z,71.44
2019-05-14T02:00:27.464Z,74.43
2019-05-14T02:05:31.203Z,73.80
2019-05-14T02:10:34.505Z,75.22
2019-05-14T02:15:40.635Z,74.18
2019-05-14T02:20:43.229Z,73.10
2019-05-14T02:25:46.727Z,72.76
2019-05-14T02:30:57.607Z,73.95
2019-05-14T02:35:55.302Z,74.15
2019-05-14T02:41:00.013Z,73.13
2019-05-14T02:46:12.118Z,72.57
2019-05-14T02:51:10.561Z,72.66
2019-05-14T02:56:13.191Z,73.30
2019-05-14T03:01:16.143Z,73.70
2019-05-14T03:06:20.241Z,72.83
2019-05-14T03:11:23.851Z,73.03
2019-05-14T03:16:32.563Z,72.67
2019-05-14T03:21:31.923Z,73.39
2019-05-14T03:26:35.173Z,75.06
2019-05-14T03:31:42.602Z,74.08
2019-05-14T03:36:44.319Z,73.44
2019-05-14T03:41:49.817Z,74.79
2019-05-14T03:46:55.927Z,75.28
2019-05-14T03:52:00.053Z,75.75
2019-05-14T03:57:02.450Z,76.02
2019-05-14T04:02:09.525Z,76.73
2019-05-14T04:07:12.124Z,77.50
2019-05-14T04:12:18.970Z,77.36
2019-05-14T04:17:32.592Z,76.94
2019-05-14T04:22:32.159Z,77.87
2019-05-14T04:27:40.007Z,78.20
2019-05-14T04:32:43.041Z,78.27
2019-05-14T04:37:49.626Z,78.58
2019-05-14T04:42:51.795Z,78.26
2019-05-14T04:47:54.964Z,77.94
2019-05-14T04:52:59.927Z,77.88
2019-05-14T04:58:03.267Z,78.00
2019-05-14T05:03:09.465Z,77.82
2019-05-14T05:08:14.218Z,77.14
2019-05-14T05:13:18.294Z,77.12
2019-05-14T05:18:20.157Z,77.04
2019-05-14T05:23:23.422Z,77.04
2019-05-14T05:28:28.312Z,77.20
2019-05-14T05:33:31.525Z,76.94
2019-05-14T05:38:34.430Z,76.71
2019-05-14T05:43:39.343Z,76.82
2019-05-14T05:48:42.138Z,76.86
2019-05-14T05:53:48.164Z,77.44
2019-05-14T05:58:50.409Z,76.82
2019-05-14T06:03:53.034Z,76.58
2019-05-14T06:08:58.199Z,76.52
2019-05-14T06:14:01.119Z,76.23
2019-05-14T06:19:04.244Z,76.82
2019-05-14T06:24:09.019Z,76.90
2019-05-14T06:29:12.747Z,77.20
2019-05-14T06:34:15.369Z,77.97
2019-05-14T06:39:20.017Z,76.78
2019-05-14T06:44:22.892Z,75.61
2019-05-14T06:49:28.795Z,75.88
2019-05-14T06:54:31.810Z,76.72
2019-05-14T06:59:34.962Z,75.56
2019-05-14T07:04:39.498Z,75.04
2019-05-14T07:09:42.957Z,73.27
2019-05-14T07:14:48.188Z,72.20
2019-05-14T07:19:51.636Z,70.38
2019-05-14T07:24:55.184Z,69.68
2019-05-14T07:29:58.533Z,68.53
2019-05-14T07:35:02.128Z,68.79
2019-05-14T07:40:08.365Z,66.45
2019-05-14T07:45:11.735Z,66.29
2019-05-14T07:50:19.432Z,63.29
2019-05-14T07:55:21.889Z,66.94
2019-05-14T08:00:25.050Z,66.39
2019-05-14T08:05:28.808Z,64.26
2019-05-14T08:10:31.808Z,66.69
2019-05-14T08:15:34.884Z,64.27
2019-05-14T08:20:38.088Z,63.74
2019-05-14T08:25:41.227Z,58.63
2019-05-14T08:30:44.316Z,62.25
2019-05-14T08:35:48.919Z,61.74
2019-05-14T08:40:52.072Z,63.41
2019-05-14T08:45:55.310Z,57.86
2019-05-14T08:50:58.851Z,59.29
2019-05-14T08:56:02.357Z,60.10
2019-05-14T09:01:05.240Z,60.05
2019-05-14T09:06:09.213Z,59.16
2019-05-14T09:11:12.491Z,57.69
2019-05-14T09:16:15.750Z,58.54
2019-05-14T09:21:20.480Z,57.77
2019-05-14T09:26:23.765Z,57.66
2019-05-14T09:31:29.459Z,57.75
2019-05-14T09:36:32.594Z,58.09
2019-05-14T09:41:35.119Z,57.29
2019-05-14T09:46:39.286Z,58.72
2019-05-14T09:51:42.233Z,59.67
2019-05-14T09:56:45.036Z,56.80
2019-05-14T10:01:50.787Z,57.88
2019-05-14T10:06:53.747Z,56.41
2019-05-14T10:11:57.995Z,55.19
2019-05-14T10:17:01.176Z,56.90
2019-05-14T10:22:04.372Z,54.33
2019-05-14T10:27:08.997Z,54.88
2019-05-14T10:32:13.062Z,52.94
2019-05-14T10:37:18.974Z,51.76
2019-05-14T10:42:21.211Z,53.32
2019-05-14T10:47:24.435Z,51.00
2019-05-14T10:52:28.851Z,47.96
2019-05-14T10:57:33.270Z,47.83
2019-05-14T11:02:38.777Z,48.03
2019-05-14T11:07:42.086Z,44.95
2019-05-14T11:12:50.107Z,44.75
2019-05-14T11:17:52.441Z,44.58
2019-05-14T11:22:58.312Z,43.45
2019-05-14T11:28:01.147Z,41.09
2019-05-14T11:33:04.490Z,42.33
2019-05-14T11:38:25.924Z,45.34
2019-05-14T11:43:12.859Z,42.56
2019-05-14T11:48:19.053Z,41.10
2019-05-14T11:53:21.701Z,38.22
2019-05-14T11:58:24.631Z,40.51
2019-05-14T12:03:28.575Z,41.72
2019-05-14T12:08:32.246Z,40.79
2019-05-14T12:13:34.803Z,41.31
2019-05-14T12:18:41.764Z,41.39
2019-05-14T12:23:43.321Z,39.78
2019-05-14T12:28:49.180Z,41.88
2019-05-14T12:33:51.102Z,38.35
2019-05-14T12:38:54.257Z,37.57
2019-05-14T12:43:58.962Z,38.26
2019-05-14T12:49:02.361Z,36.78
2019-05-14T12:54:05.580Z,38.88
2019-05-14T12:59:08.914Z,36.09
2019-05-14T13:04:12.083Z,35.68
2019-05-14T13:09:18.151Z,33.56
2019-05-14T13:14:20.243Z,35.41
2019-05-14T13:19:23.467Z,36.53
2019-05-14T13:24:28.827Z,34.85
2019-05-14T13:29:32.186Z,36.73
2019-05-14T13:34:35.160Z,34.22
2019-05-14T13:39:39.957Z,36.61
2019-05-14T13:44:42.550Z,38.34
2019-05-14T13:49:48.488Z,37.98
2019-05-14T13:54:50.730Z,35.68
2019-05-14T13:59:53.380Z,36.81
2019-05-14T14:04:58.833Z,37.39
2019-05-14T14:10:01.794Z,35.15
2019-05-14T14:15:06.095Z,35.36
2019-05-14T14:20:10.163Z,33.52
2019-05-14T14:25:17.623Z,30.25
2019-05-14T14:30:20.256Z,28.43
2019-05-14T14:35:24.518Z,27.42
2019-05-14T14:40:30.189Z,27.45
2019-05-14T14:45:33.426Z,27.50
2019-05-14T14:50:38.971Z,25.34
2019-05-14T14:55:42.063Z,26.90
2019-05-14T15:00:44.901Z,25.04
2019-05-14T15:05:49.911Z,26.08
2019-05-14T15:10:53.312Z,28.78
2019-05-14T15:15:56.639Z,29.16
2019-05-14T15:20:59.174Z,30.20
2019-05-14T15:26:02.125Z,26.95
2019-05-14T15:31:04.327Z,27.36
2019-05-14T15:36:09.118Z,27.86
2019-05-14T15:41:13.607Z,28.68
2019-05-14T15:46:18.459Z,29.67
2019-05-14T15:51:23.324Z,30.39
2019-05-14T15:56:29.643Z,29.83
2019-05-14T16:01:31.462Z,27.94
2019-05-14T16:06:34.106Z,28.14
2019-05-14T16:11:39.345Z,28.22
2019-05-14T16:16:42.858Z,27.99
2019-05-14T16:21:46.387Z,27.53
2019-05-14T16:26:49.774Z,27.54
2019-05-14T16:31:53.401Z,28.78
2019-05-14T16:36:58.431Z,28.05
2019-05-14T16:42:01.203Z,28.06
2019-05-14T16:47:04.563Z,27.24
2019-05-14T16:52:09.103Z,27.94
2019-05-14T16:57:12.953Z,25.74
2019-05-14T17:02:18.903Z,25.96
2019-05-14T17:07:21.365Z,25.89
2019-05-14T17:12:24.593Z,27.12
2019-05-14T17:17:28.113Z,30.02
2019-05-14T17:22:33.762Z,27.43
2019-05-14T17:27:39.115Z,29.18
2019-05-14T17:32:41.965Z,29.54
2019-05-14T17:37:45.228Z,28.81
2019-05-14T17:42:49.082Z,29.27
2019-05-14T17:47:52.594Z,30.80
2019-05-14T17:52:56.995Z,31.47
2019-05-14T17:58:01.318Z,33.10
2019-05-14T18:03:05.224Z,34.12
2019-05-14T18:08:09.331Z,33.48
2019-05-14T18:13:12.592Z,34.00
2019-05-14T18:18:18.326Z,34.33
2019-05-14T18:23:22.132Z,34.65
2019-05-14T18:28:25.367Z,36.28
2019-05-14T18:33:31.237Z,36.20
2019-05-14T18:38:33.592Z,36.97
2019-05-14T18:43:36.495Z,38.55
2019-05-14T18:48:40.213Z,39.21
2019-05-14T18:53:43.479Z,40.49
2019-05-14T18:58:48.956Z,40.51
2019-05-14T19:03:52.066Z,41.32
2019-05-14T19:08:55.647Z,41.59
2019-05-14T19:13:58.904Z,42.35
2019-05-14T19:19:02.244Z,42.44
2019-05-14T19:24:05.590Z,42.63
2019-05-14T19:29:09.886Z,42.68
2019-05-14T19:34:13.364Z,42.91
2019-05-14T19:39:18.746Z,43.39
2019-05-14T19:44:22.164Z,43.92
2019-05-14T19:49:25.780Z,44.75
2019-05-14T19:54:29.378Z,44.87
2019-05-14T19:59:33.017Z,45.29
2019-05-14T20:04:37.785Z,45.62
2019-05-14T20:09:41.219Z,45.74
2019-05-14T20:14:44.994Z,47.06
2019-05-14T20:19:49.406Z,46.58
2019-05-14T20:24:53.100Z,46.41
2019-05-14T20:29:58.063Z,46.62
2019-05-14T20:35:02.035Z,47.12
2019-05-14T20:40:07.641Z,47.88
2019-05-14T20:45:11.264Z,48.20
2019-05-14T20:50:14.642Z,48.69
2019-05-14T20:55:19.077Z,49.89
2019-05-14T21:00:22.819Z,50.80
2019-05-14T21:05:28.405Z,51.90
2019-05-14T21:10:31.889Z,53.28
2019-05-14T21:15:35.542Z,54.38
2019-05-14T21:20:39.529Z,54.67
2019-05-14T21:25:43.194Z,54.71
2019-05-14T21:30:48.538Z,55.08
2019-05-14T21:35:51.762Z,55.21
2019-05-14T21:40:54.844Z,55.40
2019-05-14T21:45:58.676Z,55.33
2019-05-14T21:51:02.263Z,56.62
2019-05-14T21:56:05.525Z,57.88
2019-05-14T22:01:09.831Z,58.45
2019-05-14T22:06:13.446Z,58.36
2019-05-14T22:11:18.653Z,58.36
2019-05-14T22:16:22.109Z,59.29
2019-05-14T22:21:25.045Z,59.76
2019-05-14T22:26:28.381Z,59.55
2019-05-14T22:31:31.369Z,59.84
2019-05-14T22:36:35.164Z,59.84
2019-05-14T22:41:39.151Z,61.26
2019-05-14T22:46:43.971Z,60.65
2019-05-14T22:51:49.248Z,60.87
2019-05-14T22:56:52.119Z,61.05
2019-05-14T23:01:55.435Z,61.85
2019-05-14T23:06:59.061Z,62.34
2019-05-14T23:12:02.169Z,63.13
2019-05-14T23:17:04.762Z,63.33
2019-05-14T23:22:08.032Z,63.74
2019-05-14T23:27:11.303Z,64.23
2019-05-14T23:32:14.600Z,64.15
2019-05-14T23:37:18.560Z,64.41
2019-05-14T23:42:21.792Z,66.60
2019-05-14T23:47:24.318Z,67.24
2019-05-14T23:52:29.284Z,66.90
2019-05-14T23:57:33.194Z,67.12
